Time;durP1;ratioP1;P1;durP2;ratioP2;P2;SDS_P1;SDS_P2;PMS_P1;PMS_P2;Temp;Humidity;BMP_temperature;BMP_pressure;BME280_temperature;BME280_humidity;BME280_pressure;Samples;Min_cycle;Max_cycle;Signal;HPM_P1;HPM_P2
2022/10/14 00:01:01;;;;;;;5.88;5.57;;;;;;;;;;5016706;28;20091;-71
2022/10/14 00:03:27;;;;;;;5.55;5.35;;;;;;;;;;5017966;28;20030;-72
2022/10/14 00:05:52;;;;;;;5.95;5.65;;;;;;;;;;5016461;28;20409;-72
2022/10/14 00:08:18;;;;;;;5.82;5.53;;;;;;;;;;5017048;28;20370;-71
2022/10/14 00:10:43;;;;;;;5.50;5.30;;;;;;;;;;5017078;28;20451;-72
2022/10/14 00:13:09;;;;;;;5.68;5.40;;;;;;;;;;5017736;28;20034;-71
2022/10/14 00:15:39;;;;;;;5.90;5.60;;;;;;;;;;5024776;28;20068;-72
2022/10/14 00:18:06;;;;;;;6.05;5.75;;;;;;;;;;5023169;28;20620;-71
2022/10/14 00:20:32;;;;;;;6.03;5.72;;;;;;;;;;5019933;28;20669;-71
2022/10/14 00:22:57;;;;;;;6.00;5.70;;;;;;;;;;5018551;28;20025;-71
2022/10/14 00:25:25;;;;;;;5.75;5.45;;;;;;;;;;5017317;28;20120;-71
2022/10/14 00:27:51;;;;;;;5.85;5.55;;;;;;;;;;5022923;28;20040;-71
2022/10/14 00:30:17;;;;;;;5.40;5.20;;;;;;;;;;5023658;28;20048;-71
2022/10/14 00:32:43;;;;;;;5.82;5.53;;;;;;;;;;5022053;28;20034;-71
2022/10/14 00:35:08;;;;;;;13.98;10.57;;;;;;;;;;5021200;28;20034;-71
2022/10/14 00:37:34;;;;;;;5.60;5.40;;;;;;;;;;5014516;28;20044;-71
2022/10/14 00:39:59;;;;;;;5.85;5.55;;;;;;;;;;5021565;28;20464;-71
2022/10/14 00:42:30;;;;;;;5.70;5.40;;;;;;;;;;5015050;28;20080;-71
2022/10/14 00:45:00;;;;;;;5.80;5.50;;;;;;;;;;5024244;28;20124;-71
2022/10/14 00:47:26;;;;;;;5.70;5.40;;;;;;;;;;5019541;28;20030;-71
2022/10/14 00:49:52;;;;;;;5.40;5.20;;;;;;;;;;5016513;28;20445;-71
2022/10/14 00:52:21;;;;;;;5.50;5.30;;;;;;;;;;5025275;28;20063;-70
2022/10/14 00:54:51;;;;;;;5.40;5.20;;;;;;;;;;5017766;28;20040;-71
2022/10/14 00:57:18;;;;;;;5.25;5.05;;;;;;;;;;5021160;28;20044;-71
2022/10/14 00:59:43;;;;;;;5.40;5.20;;;;;;;;;;5019284;28;20065;-71
2022/10/14 01:02:09;;;;;;;5.40;5.20;;;;;;;;;;5022598;28;20112;-71
2022/10/14 01:04:39;;;;;;;5.30;5.10;;;;;;;;;;5019172;28;20175;-71
2022/10/14 01:07:12;;;;;;;5.50;5.30;;;;;;;;;;5024813;28;20037;-71
2022/10/14 01:09:46;;;;;;;5.40;5.20;;;;;;;;;;5020901;28;20030;-71
2022/10/14 01:12:12;;;;;;;5.40;5.20;;;;;;;;;;5014977;28;20041;-71
2022/10/14 01:14:52;;;;;;;5.68;5.40;;;;;;;;;;5023228;28;20112;-71
2022/10/14 01:17:25;;;;;;;;;;;;;;;;;;5026093;28;20088;-71
2022/10/14 01:19:59;;;;;;;5.50;5.30;;;;;;;;;;5024974;28;19927;-71
2022/10/14 01:23:06;;;;;;;5.53;5.32;;;;;;;;;;5021068;28;20041;-71
2022/10/14 01:25:36;;;;;;;5.40;5.20;;;;;;;;;;5020539;28;20128;-71
2022/10/14 01:28:10;;;;;;;5.68;5.40;;;;;;;;;;5018281;28;20513;-71
2022/10/14 01:30:48;;;;;;;5.50;5.30;;;;;;;;;;5019355;28;20041;-71
2022/10/14 01:33:27;;;;;;;6.13;5.82;;;;;;;;;;5017219;28;20044;-71
2022/10/14 01:36:07;;;;;;;5.68;5.40;;;;;;;;;;5019629;28;20421;-71
2022/10/14 01:38:54;;;;;;;5.30;5.10;;;;;;;;;;5024585;28;20037;-71
2022/10/14 01:41:27;;;;;;;5.72;5.43;;;;;;;;;;5020455;28;20044;-71
2022/10/14 01:43:54;;;;;;;5.20;5.00;;;;;;;;;;5018445;28;20582;-71
2022/10/14 01:46:24;;;;;;;5.50;5.30;;;;;;;;;;5019673;28;20038;-71
2022/10/14 01:48:55;;;;;;;6.25;5.85;;;;;;;;;;5021638;28;20038;-71
2022/10/14 01:51:40;;;;;;;5.30;5.10;;;;;;;;;;5023982;28;20035;-71
2022/10/14 01:54:13;;;;;;;5.22;5.03;;;;;;;;;;5019356;28;20072;-71
2022/10/14 01:56:41;;;;;;;5.20;5.00;;;;;;;;;;5021691;28;20041;-71
2022/10/14 01:59:11;;;;;;;5.47;5.28;;;;;;;;;;5019519;28;20649;-71
2022/10/14 02:01:36;;;;;;;5.30;5.10;;;;;;;;;;5019882;28;20091;-71
2022/10/14 02:04:13;;;;;;;5.38;5.18;;;;;;;;;;5014468;28;20025;-71
2022/10/14 02:06:45;;;;;;;5.30;5.10;;;;;;;;;;5018370;28;20091;-71
2022/10/14 02:09:29;;;;;;;5.35;5.15;;;;;;;;;;5032988;28;20684;-71
2022/10/14 02:12:05;;;;;;;5.95;5.65;;;;;;;;;;5022422;28;20037;-71
2022/10/14 02:14:59;;;;;;;5.80;5.50;;;;;;;;;;5026862;28;20040;-71
2022/10/14 02:17:28;;;;;;;5.95;5.65;;;;;;;;;;5018279;28;20043;-71
2022/10/14 02:20:02;;;;;;;5.80;5.50;;;;;;;;;;5020939;28;20041;-71
2022/10/14 02:22:39;;;;;;;5.53;5.32;;;;;;;;;;5017988;28;20038;-71
2022/10/14 02:25:27;;;;;;;5.30;5.10;;;;;;;;;;5020954;28;20037;-71
2022/10/14 02:27:53;;;;;;;5.63;5.40;;;;;;;;;;5040588;28;20037;-71
2022/10/14 02:30:19;;;;;;;5.80;5.50;;;;;;;;;;5016163;28;20033;-71
2022/10/14 02:32:51;;;;;;;5.80;5.50;;;;;;;;;;5018370;28;20040;-71
2022/10/14 02:35:19;;;;;;;5.60;5.40;;;;;;;;;;5018064;28;20421;-71
2022/10/14 02:37:47;;;;;;;5.50;5.30;;;;;;;;;;5014261;28;20120;-71
2022/10/14 02:40:19;;;;;;;5.90;5.60;;;;;;;;;;5016527;28;20084;-71
2022/10/14 02:42:45;;;;;;;5.90;5.60;;;;;;;;;;5025980;28;20041;-71
2022/10/14 02:45:12;;;;;;;5.80;5.50;;;;;;;;;;5017674;28;20117;-71
2022/10/14 02:47:37;;;;;;;5.53;5.32;;;;;;;;;;5021665;28;20105;-71
2022/10/14 02:50:04;;;;;;;5.88;5.57;;;;;;;;;;5016266;28;20034;-70
2022/10/14 02:52:30;;;;;;;5.45;5.25;;;;;;;;;;5023733;28;20636;-71
2022/10/14 02:54:56;;;;;;;5.80;5.50;;;;;;;;;;5017738;28;20495;-71
2022/10/14 02:57:22;;;;;;;5.80;5.50;;;;;;;;;;5018840;28;20041;-71
2022/10/14 02:59:48;;;;;;;6.05;5.75;;;;;;;;;;5018398;28;20121;-71
2022/10/14 03:02:13;;;;;;;6.25;5.95;;;;;;;;;;5016804;28;20445;-71
2022/10/14 03:04:40;;;;;;;5.90;5.60;;;;;;;;;;5015007;28;20034;-71
2022/10/14 03:07:06;;;;;;;6.00;5.70;;;;;;;;;;5019885;28;20102;-71
2022/10/14 03:09:37;;;;;;;5.90;5.60;;;;;;;;;;5017693;28;21689;-70
2022/10/14 03:12:05;;;;;;;6.00;5.70;;;;;;;;;;5020922;28;20104;-71
2022/10/14 03:14:31;;;;;;;5.90;5.60;;;;;;;;;;5021458;28;20052;-71
2022/10/14 03:16:57;;;;;;;5.80;5.50;;;;;;;;;;5017600;28;20041;-70
2022/10/14 03:19:24;;;;;;;5.97;5.68;;;;;;;;;;5021015;28;20041;-70
2022/10/14 03:21:53;;;;;;;5.60;5.40;;;;;;;;;;5014735;28;20046;-70
2022/10/14 03:24:19;;;;;;;5.78;5.47;;;;;;;;;;5012020;28;20099;-71
2022/10/14 03:26:50;;;;;;;5.47;5.28;;;;;;;;;;5019628;28;20034;-71
2022/10/14 03:29:22;;;;;;;5.50;5.30;;;;;;;;;;5019665;28;20869;-71
2022/10/14 03:32:09;;;;;;;5.30;5.10;;;;;;;;;;5019939;28;20124;-70
2022/10/14 03:35:01;;;;;;;5.50;5.30;;;;;;;;;;4995071;28;20045;-71
2022/10/14 03:37:26;;;;;;;5.25;5.05;;;;;;;;;;5019068;28;20501;-71
2022/10/14 03:39:55;;;;;;;5.40;5.20;;;;;;;;;;5014537;28;20068;-70
2022/10/14 03:42:20;;;;;;;5.63;5.40;;;;;;;;;;5017970;28;20073;-71
2022/10/14 03:44:48;;;;;;;5.13;4.93;;;;;;;;;;5021471;28;20132;-71
2022/10/14 03:47:20;;;;;;;5.35;5.15;;;;;;;;;;5019302;28;20034;-71
2022/10/14 03:49:47;;;;;;;5.38;5.18;;;;;;;;;;5019260;28;20040;-71
2022/10/14 03:52:20;;;;;;;5.40;5.20;;;;;;;;;;5019438;28;20037;-70
2022/10/14 03:54:57;;;;;;;5.32;5.13;;;;;;;;;;5017275;28;20048;-70
2022/10/14 03:57:23;;;;;;;5.40;5.20;;;;;;;;;;5019392;28;20029;-70
2022/10/14 03:59:52;;;;;;;5.50;5.30;;;;;;;;;;5020882;28;20037;-70
2022/10/14 04:02:22;;;;;;;5.88;5.57;;;;;;;;;;5016585;28;20468;-71
2022/10/14 04:04:51;;;;;;;6.00;5.70;;;;;;;;;;5021318;28;20804;-70
2022/10/14 04:07:18;;;;;;;6.03;5.72;;;;;;;;;;5024073;28;20029;-70
2022/10/14 04:09:50;;;;;;;5.55;5.35;;;;;;;;;;5017489;28;20041;-71
2022/10/14 04:12:16;;;;;;;6.03;5.72;;;;;;;;;;5021958;28;20030;-71
2022/10/14 04:15:00;;;;;;;5.47;5.28;;;;;;;;;;5025911;28;20029;-71
2022/10/14 04:17:32;;;;;;;5.50;5.30;;;;;;;;;;5021683;28;20378;-70
2022/10/14 04:20:02;;;;;;;6.00;5.70;;;;;;;;;;5012000;28;20033;-70
2022/10/14 04:22:28;;;;;;;5.88;5.57;;;;;;;;;;5024411;28;20034;-70
2022/10/14 04:24:54;;;;;;;6.18;5.85;;;;;;;;;;5021708;28;20034;-70
2022/10/14 04:27:20;;;;;;;5.80;5.50;;;;;;;;;;5023582;28;20031;-70
2022/10/14 04:30:04;;;;;;;6.68;6.28;;;;;;;;;;5023567;28;20042;-70
2022/10/14 04:32:40;;;;;;;6.32;6.03;;;;;;;;;;5021949;28;20147;-70
2022/10/14 04:35:08;;;;;;;5.85;5.55;;;;;;;;;;5018876;28;20124;-71
2022/10/14 04:37:35;;;;;;;5.80;5.50;;;;;;;;;;5026587;28;20041;-71
2022/10/14 04:40:11;;;;;;;5.80;5.50;;;;;;;;;;5022417;28;20575;-70
2022/10/14 04:42:42;;;;;;;5.70;5.40;;;;;;;;;;5025752;28;20439;-71
2022/10/14 04:45:17;;;;;;;5.72;5.43;;;;;;;;;;5027083;28;20075;-72
2022/10/14 04:47:50;;;;;;;6.05;5.75;;;;;;;;;;5017791;28;20113;-72
2022/10/14 04:50:20;;;;;;;6.05;5.75;;;;;;;;;;5021939;28;20045;-72
2022/10/14 04:53:04;;;;;;;6.10;5.80;;;;;;;;;;5022746;28;20026;-71
2022/10/14 04:55:30;;;;;;;5.70;5.40;;;;;;;;;;5020573;28;20087;-72
2022/10/14 04:57:56;;;;;;;5.60;5.40;;;;;;;;;;5020510;28;20034;-72
2022/10/14 05:00:21;;;;;;;5.57;5.38;;;;;;;;;;5017527;28;20037;-72
2022/10/14 05:02:52;;;;;;;6.10;5.80;;;;;;;;;;5022102;28;20713;-72
2022/10/14 05:05:22;;;;;;;5.80;5.50;;;;;;;;;;5013861;28;20042;-72
2022/10/14 05:07:52;;;;;;;5.90;5.60;;;;;;;;;;5018270;28;20747;-72
2022/10/14 05:10:32;;;;;;;5.90;5.60;;;;;;;;;;5026248;28;20659;-71
2022/10/14 05:12:58;;;;;;;5.80;5.50;;;;;;;;;;5016011;28;20037;-72
2022/10/14 05:15:28;;;;;;;5.90;5.60;;;;;;;;;;5020897;28;20029;-71
2022/10/14 05:18:00;;;;;;;5.65;5.40;;;;;;;;;;5014824;28;20604;-72
2022/10/14 05:20:41;;;;;;;5.65;5.40;;;;;;;;;;5015016;28;20038;-71
2022/10/14 05:23:06;;;;;;;6.03;5.72;;;;;;;;;;5017729;28;20042;-72
2022/10/14 05:25:32;;;;;;;5.85;5.55;;;;;;;;;;5015096;28;20461;-72
2022/10/14 05:27:58;;;;;;;5.80;5.50;;;;;;;;;;4994426;28;20126;-71
2022/10/14 05:30:25;;;;;;;5.70;5.40;;;;;;;;;;5017421;28;20034;-72
2022/10/14 05:32:51;;;;;;;6.18;5.88;;;;;;;;;;5017805;28;20049;-72
2022/10/14 05:35:19;;;;;;;5.85;5.55;;;;;;;;;;5019499;28;20034;-72
2022/10/14 05:37:44;;;;;;;5.90;5.60;;;;;;;;;;5019015;28;20033;-72
2022/10/14 05:40:11;;;;;;;6.05;5.75;;;;;;;;;;5020726;28;20489;-72
2022/10/14 05:42:37;;;;;;;5.80;5.50;;;;;;;;;;5020831;28;20112;-73
2022/10/14 05:45:04;;;;;;;5.90;5.60;;;;;;;;;;5022349;28;20498;-72
2022/10/14 05:47:32;;;;;;;5.88;5.57;;;;;;;;;;5023105;28;20522;-71
2022/10/14 05:50:05;;;;;;;6.25;5.95;;;;;;;;;;5025625;28;20144;-72
2022/10/14 05:52:31;;;;;;;6.20;5.90;;;;;;;;;;5022659;28;20049;-71
2022/10/14 05:55:01;;;;;;;6.05;5.75;;;;;;;;;;5018030;28;20037;-72
2022/10/14 05:57:27;;;;;;;6.00;5.70;;;;;;;;;;5025151;28;20045;-72
2022/10/14 05:59:53;;;;;;;5.40;5.20;;;;;;;;;;5006848;28;20034;-71
2022/10/14 06:02:19;;;;;;;5.85;5.55;;;;;;;;;;5023348;28;20083;-72
2022/10/14 06:04:45;;;;;;;5.85;5.55;;;;;;;;;;5015109;28;20033;-72
2022/10/14 06:07:12;;;;;;;5.70;5.40;;;;;;;;;;5022542;28;20048;-72
2022/10/14 06:09:37;;;;;;;5.50;5.30;;;;;;;;;;5020197;28;20033;-71
2022/10/14 06:12:04;;;;;;;6.00;5.70;;;;;;;;;;5021586;28;20110;-71
2022/10/14 06:14:30;;;;;;;5.80;5.50;;;;;;;;;;5022061;28;20048;-72
2022/10/14 06:16:56;;;;;;;5.45;5.25;;;;;;;;;;5025124;28;20033;-72
2022/10/14 06:19:22;;;;;;;5.30;5.10;;;;;;;;;;5020972;28;20095;-71
2022/10/14 06:21:48;;;;;;;5.30;5.10;;;;;;;;;;5023856;28;20037;-72
2022/10/14 06:24:14;;;;;;;5.82;5.53;;;;;;;;;;5024205;28;20033;-72
2022/10/14 06:26:39;;;;;;;5.82;5.53;;;;;;;;;;5022678;28;20025;-72
2022/10/14 06:29:05;;;;;;;5.80;5.50;;;;;;;;;;5021255;28;20107;-72
2022/10/14 06:31:31;;;;;;;5.57;5.38;;;;;;;;;;5023821;28;20048;-72
2022/10/14 06:33:56;;;;;;;5.90;5.60;;;;;;;;;;5024744;28;20036;-71
2022/10/14 06:36:22;;;;;;;5.80;5.50;;;;;;;;;;5014328;28;20120;-71
2022/10/14 06:38:48;;;;;;;6.03;5.72;;;;;;;;;;5021608;28;20040;-71
2022/10/14 06:41:13;;;;;;;5.50;5.30;;;;;;;;;;5023702;28;20025;-71
2022/10/14 06:43:39;;;;;;;5.30;5.10;;;;;;;;;;5023459;28;20036;-72
2022/10/14 06:46:05;;;;;;;5.22;5.03;;;;;;;;;;5021066;28;20034;-71
2022/10/14 06:48:31;;;;;;;5.85;5.55;;;;;;;;;;5023842;28;20033;-72
2022/10/14 06:51:00;;;;;;;5.43;5.22;;;;;;;;;;5021623;28;20034;-70
2022/10/14 06:53:27;;;;;;;5.80;5.50;;;;;;;;;;5020337;28;20038;-71
2022/10/14 06:56:01;;;;;;;6.30;6.00;;;;;;;;;;5018574;28;21317;-72
2022/10/14 06:58:28;;;;;;;6.50;6.20;;;;;;;;;;5014177;28;20030;-71
2022/10/14 07:00:54;;;;;;;6.10;5.80;;;;;;;;;;5020983;28;20037;-72
2022/10/14 07:03:20;;;;;;;5.88;5.57;;;;;;;;;;5025249;28;20051;-71
2022/10/14 07:05:46;;;;;;;6.10;5.80;;;;;;;;;;5021282;28;20033;-72
2022/10/14 07:08:12;;;;;;;5.80;5.50;;;;;;;;;;5023455;28;20021;-72
2022/10/14 07:10:37;;;;;;;6.00;5.70;;;;;;;;;;5024988;28;20604;-72
2022/10/14 07:13:03;;;;;;;6.50;6.20;;;;;;;;;;5026199;28;20033;-72
2022/10/14 07:15:28;;;;;;;6.10;5.80;;;;;;;;;;5022109;28;20035;-72
2022/10/14 07:17:54;;;;;;;6.18;5.88;;;;;;;;;;5019182;28;20036;-72
2022/10/14 07:20:19;;;;;;;5.63;5.40;;;;;;;;;;5015204;28;20125;-72
2022/10/14 07:22:45;;;;;;;5.90;5.60;;;;;;;;;;5025190;28;20112;-72
2022/10/14 07:25:11;;;;;;;6.32;6.03;;;;;;;;;;5020879;28;20071;-72
2022/10/14 07:27:36;;;;;;;6.13;5.82;;;;;;;;;;5015618;28;20026;-72
2022/10/14 07:30:04;;;;;;;6.30;6.00;;;;;;;;;;5020655;28;20064;-72
2022/10/14 07:32:29;;;;;;;6.18;5.88;;;;;;;;;;5020456;28;20418;-71
2022/10/14 07:34:55;;;;;;;6.25;5.95;;;;;;;;;;5019897;28;20038;-72
2022/10/14 07:37:21;;;;;;;6.10;5.80;;;;;;;;;;5015574;28;20041;-72
2022/10/14 07:39:46;;;;;;;8.13;7.72;;;;;;;;;;5022212;28;20034;-72
2022/10/14 07:42:12;;;;;;;6.38;6.05;;;;;;;;;;5021726;28;20068;-73
2022/10/14 07:44:38;;;;;;;6.18;5.88;;;;;;;;;;5024267;28;20083;-72
2022/10/14 07:47:05;;;;;;;6.30;6.00;;;;;;;;;;5019966;28;20056;-72
2022/10/14 07:49:31;;;;;;;6.40;6.10;;;;;;;;;;5021047;28;20048;-72
2022/10/14 07:51:56;;;;;;;6.18;5.88;;;;;;;;;;5024425;28;20146;-72
2022/10/14 07:54:24;;;;;;;6.40;6.10;;;;;;;;;;5021824;28;20483;-73
2022/10/14 07:56:50;;;;;;;5.93;5.63;;;;;;;;;;5021465;28;20054;-73
2022/10/14 07:59:18;;;;;;;5.78;5.47;;;;;;;;;;5023594;28;20076;-72
2022/10/14 08:01:48;;;;;;;5.88;5.57;;;;;;;;;;5020845;28;20501;-72
2022/10/14 08:04:15;;;;;;;6.03;5.72;;;;;;;;;;5015713;28;20029;-72
2022/10/14 08:06:41;;;;;;;6.20;5.90;;;;;;;;;;5024887;28;20112;-73
2022/10/14 08:09:10;;;;;;;6.03;5.72;;;;;;;;;;5023182;28;20121;-73
2022/10/14 08:11:36;;;;;;;6.25;5.95;;;;;;;;;;5024053;28;20048;-73
2022/10/14 08:14:03;;;;;;;5.25;5.05;;;;;;;;;;5022496;28;20037;-72
2022/10/14 08:16:31;;;;;;;6.00;5.70;;;;;;;;;;5018572;28;20120;-72
2022/10/14 08:18:59;;;;;;;4.90;4.70;;;;;;;;;;5025143;28;20045;-73
2022/10/14 08:21:25;;;;;;;6.25;5.95;;;;;;;;;;5025307;28;20405;-72
2022/10/14 08:23:51;;;;;;;8.70;8.20;;;;;;;;;;5022627;28;20036;-73
2022/10/14 08:26:49;;;;;;;6.20;5.90;;;;;;;;;;5021862;28;20044;-72
2022/10/14 08:29:15;;;;;;;6.30;6.00;;;;;;;;;;4929356;29;20052;-72
2022/10/14 08:31:40;;;;;;;6.43;6.13;;;;;;;;;;4927604;29;20043;-72
2022/10/14 08:34:06;;;;;;;5.90;5.60;;;;;;;;;;4936447;29;20058;-72
2022/10/14 08:36:32;;;;;;;5.68;5.40;;;;;;;;;;4931454;29;20059;-72
2022/10/14 08:38:57;;;;;;;6.00;5.70;;;;;;;;;;4931018;29;20165;-72
2022/10/14 08:41:35;;;;;;;6.00;5.70;;;;;;;;;;4927836;29;20040;-72
2022/10/14 08:44:07;;;;;;;6.32;6.03;;;;;;;;;;4940734;29;20039;-72
2022/10/14 08:46:39;;;;;;;6.03;5.72;;;;;;;;;;4910841;29;20043;-72
2022/10/14 08:49:10;;;;;;;6.07;5.78;;;;;;;;;;4933924;28;20556;-72
2022/10/14 08:51:38;;;;;;;5.97;5.68;;;;;;;;;;4925558;29;20056;-72
2022/10/14 08:54:09;;;;;;;6.10;5.80;;;;;;;;;;4929818;29;20040;-72
2022/10/14 08:56:36;;;;;;;6.40;6.10;;;;;;;;;;4937695;29;20035;-72
2022/10/14 08:59:11;;;;;;;6.10;5.80;;;;;;;;;;4930111;29;20087;-72
2022/10/14 09:02:06;;;;;;;5.53;5.32;;;;;;;;;;4927710;29;20538;-72
2022/10/14 09:04:34;;;;;;;5.78;5.47;;;;;;;;;;4935128;28;20204;-73
2022/10/14 09:07:01;;;;;;;5.70;5.40;;;;;;;;;;5019900;28;20486;-72
2022/10/14 09:09:40;;;;;;;5.85;5.55;;;;;;;;;;5024503;28;20041;-72
2022/10/14 09:12:11;;;;;;;6.15;5.85;;;;;;;;;;5017372;28;20033;-73
2022/10/14 09:14:44;;;;;;;6.47;6.18;;;;;;;;;;5025349;28;20037;-73
2022/10/14 09:17:19;;;;;;;6.30;6.00;;;;;;;;;;5022329;28;20109;-73
2022/10/14 09:19:50;;;;;;;5.80;5.50;;;;;;;;;;5024562;28;20060;-73
2022/10/14 09:22:16;;;;;;;6.20;5.90;;;;;;;;;;5020614;28;20033;-73
2022/10/14 09:24:47;;;;;;;6.20;5.90;;;;;;;;;;5016870;28;20084;-73
2022/10/14 09:27:16;;;;;;;5.82;5.53;;;;;;;;;;5025702;28;20064;-73
2022/10/14 09:29:49;;;;;;;5.93;5.63;;;;;;;;;;5019181;28;20036;-73
2022/10/14 09:32:25;;;;;;;5.70;5.40;;;;;;;;;;5021779;28;20087;-73
2022/10/14 09:34:52;;;;;;;6.07;5.78;;;;;;;;;;5025793;28;20068;-73
2022/10/14 09:37:24;;;;;;;6.30;6.00;;;;;;;;;;5026397;28;20083;-73
2022/10/14 09:39:52;;;;;;;6.20;5.90;;;;;;;;;;5022938;28;20053;-73
2022/10/14 09:42:25;;;;;;;7.07;6.53;;;;;;;;;;5024033;28;20026;-73
2022/10/14 09:45:17;;;;;;;6.10;5.80;;;;;;;;;;5024041;28;20030;-73
2022/10/14 09:48:02;;;;;;;6.07;5.78;;;;;;;;;;5021735;28;20033;-73
2022/10/14 09:50:53;;;;;;;6.43;6.13;;;;;;;;;;5022497;28;20041;-73
2022/10/14 09:53:31;;;;;;;6.07;5.78;;;;;;;;;;5016934;28;20064;-73
2022/10/14 09:56:03;;;;;;;5.93;5.63;;;;;;;;;;5021071;28;20038;-73
2022/10/14 09:58:51;;;;;;;6.10;5.80;;;;;;;;;;5025348;28;20033;-73
2022/10/14 10:01:19;;;;;;;6.40;6.10;;;;;;;;;;5024335;28;20128;-73
2022/10/14 10:03:46;;;;;;;6.60;6.30;;;;;;;;;;5026556;28;20038;-73
2022/10/14 10:06:17;;;;;;;6.53;6.22;;;;;;;;;;5029227;28;20050;-73
2022/10/14 10:08:52;;;;;;;5.97;5.68;;;;;;;;;;5027057;28;20444;-73
2022/10/14 10:11:37;;;;;;;6.40;6.10;;;;;;;;;;5019599;28;20033;-73
2022/10/14 10:14:15;;;;;;;6.38;6.07;;;;;;;;;;5016131;28;20037;-73
2022/10/14 10:16:40;;;;;;;5.50;5.30;;;;;;;;;;5026277;28;20370;-73
2022/10/14 10:19:26;;;;;;;6.30;6.00;;;;;;;;;;5022726;28;20163;-73
2022/10/14 10:21:52;;;;;;;6.28;5.97;;;;;;;;;;5021102;28;20250;-73
2022/10/14 10:24:21;;;;;;;5.90;5.60;;;;;;;;;;5028677;28;20428;-74
2022/10/14 10:26:47;;;;;;;5.97;5.68;;;;;;;;;;5024958;28;20057;-74
2022/10/14 10:29:33;;;;;;;5.85;5.55;;;;;;;;;;5024229;28;20049;-74
2022/10/14 10:32:00;;;;;;;6.10;5.80;;;;;;;;;;5026848;28;20033;-73
2022/10/14 10:34:48;;;;;;;6.30;6.00;;;;;;;;;;5024106;28;20029;-73
2022/10/14 10:37:22;;;;;;;6.10;5.80;;;;;;;;;;5021376;28;20058;-74
2022/10/14 10:40:13;;;;;;;5.93;5.63;;;;;;;;;;5020006;28;20060;-74
2022/10/14 10:42:50;;;;;;;6.40;6.10;;;;;;;;;;5020131;28;20505;-73
2022/10/14 10:45:53;;;;;;;6.40;6.10;;;;;;;;;;5014168;28;20034;-73
2022/10/14 10:48:43;;;;;;;6.30;6.00;;;;;;;;;;5011752;28;20685;-73
2022/10/14 10:51:13;;;;;;;6.00;5.70;;;;;;;;;;5014328;28;20045;-73
2022/10/14 10:53:45;;;;;;;6.20;5.90;;;;;;;;;;5018287;28;20824;-73
2022/10/14 10:56:33;;;;;;;6.40;6.10;;;;;;;;;;5018238;28;20048;-73
2022/10/14 10:59:30;;;;;;;6.30;6.00;;;;;;;;;;5019363;28;20033;-73
2022/10/14 11:02:11;;;;;;;6.60;6.30;;;;;;;;;;5018076;28;20408;-72
2022/10/14 11:04:56;;;;;;;6.40;6.10;;;;;;;;;;5015662;28;20168;-73
2022/10/14 11:13:53;;;;;;;6.40;6.10;;;;;;;;;;5013811;28;20115;-72
2022/10/14 11:16:29;;;;;;;;;;;;;;;;;;5019160;28;20033;-72
2022/10/14 11:19:08;;;;;;;6.57;6.28;;;;;;;;;;5021607;28;19945;-72
2022/10/14 11:21:47;;;;;;;6.40;6.10;;;;;;;;;;5012433;28;20034;-72
2022/10/14 11:24:32;;;;;;;6.40;6.10;;;;;;;;;;5017979;28;20037;-72
2022/10/14 11:27:22;;;;;;;6.78;6.47;;;;;;;;;;5018581;28;20034;-72
2022/10/14 11:30:02;;;;;;;6.40;6.10;;;;;;;;;;5021464;28;20525;-72
2022/10/14 11:32:45;;;;;;;6.00;5.70;;;;;;;;;;5018666;28;20041;-72
2022/10/14 11:35:37;;;;;;;6.10;5.80;;;;;;;;;;5013820;28;20037;-72
2022/10/14 11:38:09;;;;;;;6.25;5.95;;;;;;;;;;5016327;28;20088;-72
2022/10/14 11:40:53;;;;;;;6.50;6.20;;;;;;;;;;5020581;28;20774;-72
2022/10/14 11:43:32;;;;;;;6.30;6.00;;;;;;;;;;5017360;28;20425;-72
2022/10/14 11:46:07;;;;;;;6.30;6.00;;;;;;;;;;5020854;28;20061;-73
2022/10/14 11:48:58;;;;;;;6.50;6.20;;;;;;;;;;5016935;28;20133;-74
2022/10/14 11:51:32;;;;;;;6.40;6.10;;;;;;;;;;5016355;28;20567;-74
2022/10/14 11:54:10;;;;;;;6.18;5.88;;;;;;;;;;5014832;28;20041;-73
2022/10/14 11:56:51;;;;;;;6.30;6.00;;;;;;;;;;5016810;28;20043;-74
2022/10/14 11:59:26;;;;;;;6.45;6.15;;;;;;;;;;5016205;28;20041;-74
2022/10/14 12:02:00;;;;;;;6.25;5.95;;;;;;;;;;5021587;28;20044;-73
2022/10/14 12:04:39;;;;;;;6.35;6.05;;;;;;;;;;5025088;28;20044;-73
2022/10/14 12:07:11;;;;;;;6.20;5.90;;;;;;;;;;5017198;28;20033;-74
2022/10/14 12:09:56;;;;;;;6.30;6.00;;;;;;;;;;5020725;28;20045;-74
2022/10/14 12:12:27;;;;;;;6.30;6.00;;;;;;;;;;5014474;28;20157;-74
2022/10/14 12:15:06;;;;;;;5.90;5.60;;;;;;;;;;5018708;28;20037;-73
2022/10/14 12:17:52;;;;;;;5.70;5.40;;;;;;;;;;5017259;28;20038;-73
2022/10/14 12:20:45;;;;;;;5.80;5.50;;;;;;;;;;5013041;28;20493;-73
2022/10/14 12:23:26;;;;;;;6.18;5.88;;;;;;;;;;5017512;28;20044;-73
2022/10/14 12:26:34;;;;;;;6.05;5.75;;;;;;;;;;5015659;28;20041;-73
2022/10/14 12:29:02;;;;;;;6.15;5.85;;;;;;;;;;5002726;28;20597;-73
2022/10/14 12:31:37;;;;;;;6.30;6.00;;;;;;;;;;5023378;28;20053;-73
2022/10/14 12:34:16;;;;;;;5.40;5.20;;;;;;;;;;5021726;28;20029;-73
2022/10/14 12:36:49;;;;;;;5.30;5.10;;;;;;;;;;5020383;28;20136;-72
2022/10/14 12:39:17;;;;;;;5.70;5.40;;;;;;;;;;5019153;28;20038;-72
2022/10/14 12:42:03;;;;;;;5.18;4.97;;;;;;;;;;5020717;28;20109;-72
2022/10/14 12:44:47;;;;;;;6.10;5.80;;;;;;;;;;5019216;28;20038;-72
2022/10/14 12:47:34;;;;;;;5.70;5.40;;;;;;;;;;5020444;28;20069;-72
2022/10/14 12:50:25;;;;;;;6.10;5.80;;;;;;;;;;5023219;28;20501;-72
2022/10/14 12:53:00;;;;;;;6.50;6.20;;;;;;;;;;5015194;28;20037;-73
2022/10/14 12:55:31;;;;;;;6.60;6.30;;;;;;;;;;5020574;28;20037;-72
2022/10/14 12:58:00;;;;;;;6.40;6.10;;;;;;;;;;5019521;28;20469;-72
2022/10/14 13:00:30;;;;;;;6.53;6.22;;;;;;;;;;5023824;28;20404;-72
2022/10/14 13:03:01;;;;;;;6.55;6.25;;;;;;;;;;5021392;28;20033;-72
2022/10/14 13:05:40;;;;;;;6.75;6.45;;;;;;;;;;5016029;28;20700;-72
2022/10/14 13:08:11;;;;;;;6.72;6.43;;;;;;;;;;5021913;28;20029;-73
2022/10/14 13:10:36;;;;;;;6.32;6.03;;;;;;;;;;5017152;28;20148;-72
2022/10/14 13:13:36;;;;;;;5.70;5.40;;;;;;;;;;5016204;28;20525;-72
2022/10/14 13:16:02;;;;;;;5.80;5.50;;;;;;;;;;5017006;28;20034;-72
2022/10/14 13:18:36;;;;;;;6.00;5.70;;;;;;;;;;5019026;28;20041;-72
2022/10/14 13:21:03;;;;;;;6.50;6.20;;;;;;;;;;5017639;28;20480;-72
2022/10/14 13:23:46;;;;;;;6.43;6.13;;;;;;;;;;5014205;28;20041;-72
2022/10/14 13:26:33;;;;;;;6.30;6.00;;;;;;;;;;5018846;28;20301;-72
2022/10/14 13:29:30;;;;;;;6.32;6.03;;;;;;;;;;5015201;28;20034;-72
2022/10/14 13:32:53;;;;;;;6.50;6.20;;;;;;;;;;5018559;28;20551;-72
2022/10/14 13:35:41;;;;;;;6.40;6.10;;;;;;;;;;4962687;28;20042;-72
2022/10/14 13:38:13;;;;;;;6.80;6.50;;;;;;;;;;4963612;28;20047;-72
2022/10/14 13:40:48;;;;;;;6.50;6.20;;;;;;;;;;4961624;28;20082;-72
2022/10/14 13:43:25;;;;;;;6.43;6.13;;;;;;;;;;4963032;28;20510;-72
2022/10/14 13:46:19;;;;;;;6.60;6.30;;;;;;;;;;4963510;28;20066;-72
2022/10/14 13:48:50;;;;;;;6.10;5.80;;;;;;;;;;4960426;28;20493;-72
2022/10/14 13:51:36;;;;;;;5.70;5.40;;;;;;;;;;4961048;28;20442;-72
2022/10/14 13:54:13;;;;;;;5.40;5.20;;;;;;;;;;4938122;28;20165;-72
2022/10/14 13:56:39;;;;;;;5.97;5.68;;;;;;;;;;4963608;28;20062;-72
2022/10/14 13:59:23;;;;;;;6.00;5.70;;;;;;;;;;4956530;28;20499;-72
2022/10/14 14:01:53;;;;;;;6.30;6.00;;;;;;;;;;4963433;28;20062;-72
2022/10/14 14:04:32;;;;;;;5.90;5.60;;;;;;;;;;4964578;28;20362;-72
2022/10/14 14:06:59;;;;;;;6.90;6.53;;;;;;;;;;5008580;28;20041;-72
2022/10/14 14:09:29;;;;;;;5.90;5.60;;;;;;;;;;5020727;28;20466;-72
2022/10/14 14:11:58;;;;;;;5.93;5.63;;;;;;;;;;5015204;28;20037;-72
2022/10/14 14:14:39;;;;;;;6.40;6.10;;;;;;;;;;5020601;28;20077;-72
2022/10/14 14:17:11;;;;;;;6.18;5.88;;;;;;;;;;5015422;28;20508;-72
2022/10/14 14:19:40;;;;;;;6.20;5.90;;;;;;;;;;5019242;28;20044;-72
2022/10/14 14:22:12;;;;;;;6.05;5.75;;;;;;;;;;5015857;28;20036;-72
2022/10/14 14:24:38;;;;;;;6.10;5.80;;;;;;;;;;5023710;28;20037;-71
2022/10/14 14:27:04;;;;;;;6.18;5.88;;;;;;;;;;5020042;28;20429;-72
2022/10/14 14:29:31;;;;;;;6.70;6.40;;;;;;;;;;5016712;28;20041;-71
2022/10/14 14:31:59;;;;;;;6.80;6.50;;;;;;;;;;5017531;28;20029;-72
2022/10/14 14:34:24;;;;;;;6.68;6.38;;;;;;;;;;5023066;28;20069;-71
2022/10/14 14:36:51;;;;;;;6.70;6.40;;;;;;;;;;5018347;28;20383;-71
2022/10/14 14:39:28;;;;;;;6.20;5.90;;;;;;;;;;5022207;28;20033;-72
2022/10/14 14:41:58;;;;;;;6.30;6.00;;;;;;;;;;5020754;28;20045;-71
2022/10/14 14:44:27;;;;;;;6.13;5.82;;;;;;;;;;5019903;28;20045;-72
2022/10/14 14:46:59;;;;;;;6.65;6.35;;;;;;;;;;5008669;28;20461;-72
2022/10/14 14:49:29;;;;;;;6.50;6.20;;;;;;;;;;5020232;28;20517;-72
2022/10/14 14:51:58;;;;;;;6.40;6.10;;;;;;;;;;5020619;28;20536;-72
2022/10/14 14:54:24;;;;;;;6.30;6.00;;;;;;;;;;5021411;28;20037;-72
2022/10/14 14:56:59;;;;;;;6.50;6.20;;;;;;;;;;5020215;28;20033;-72
2022/10/14 14:59:41;;;;;;;6.60;6.30;;;;;;;;;;5020396;28;20556;-72
2022/10/14 15:02:14;;;;;;;6.05;5.75;;;;;;;;;;5019041;28;20060;-72
2022/10/14 15:04:41;;;;;;;6.13;5.82;;;;;;;;;;5020192;28;20068;-72
2022/10/14 15:07:13;;;;;;;6.22;5.93;;;;;;;;;;5020123;28;20058;-72
2022/10/14 15:09:55;;;;;;;6.50;6.20;;;;;;;;;;5015108;28;20092;-71
2022/10/14 15:12:22;;;;;;;6.30;6.00;;;;;;;;;;5019389;28;20113;-71
2022/10/14 15:14:49;;;;;;;6.40;6.10;;;;;;;;;;5018576;28;20221;-72
2022/10/14 15:17:38;;;;;;;6.25;5.95;;;;;;;;;;5020280;28;20120;-72
2022/10/14 15:20:03;;;;;;;6.30;6.00;;;;;;;;;;5020185;28;20037;-71